Solon, Iowa
Current Conditions -  °F | °C
As of 7:52 AM on Thursday 23 Oct 2014 (Local Time) from KCID Reporting Station
Overcast Overcast  
Wind Chill: 44°   Ceiling: 4700
Heat Index: 48°   Visibility: 10mi
Dew Point: 42°   Wind: 9mph
Humidity: 80%   Direction: 160°SSE
Pressure: 30.07"   Gusts: NA
Location:  41.81°N, 91.49°W
Report Text: KCID 231252Z 16008KT 10SM BKN047 OVC055 09/06 A3007 RMK AO2 RAB20E30 SLP187 P0000 T00890056
Loading
Personal Weather Stations






























Interactive Weather Map New forecast layout! Learn more

10-Day Weather Forecast

Advertisements
Track Severe Weather on mobile